sensor_id;sensor_type;location;lat;lon;timestamp;P1;durP1;ratioP1;P2;durP2;ratioP2
21527;SDS011;10925;49.102;-0.370;2023-02-28T00:00:04;9.13;;;5.00;;
21527;SDS011;10925;49.102;-0.370;2023-02-28T00:02:37;10.75;;;5.25;;
21527;SDS011;10925;49.102;-0.370;2023-02-28T00:05:03;9.93;;;5.32;;
21527;SDS011;10925;49.102;-0.370;2023-02-28T00:07:31;11.88;;;5.95;;
21527;SDS011;10925;49.102;-0.370;2023-02-28T00:09:58;8.27;;;4.82;;
21527;SDS011;10925;49.102;-0.370;2023-02-28T00:12:26;9.02;;;4.82;;
21527;SDS011;10925;49.102;-0.370;2023-02-28T00:14:52;13.38;;;5.22;;
21527;SDS011;10925;49.102;-0.370;2023-02-28T00:17:18;13.90;;;5.30;;
21527;SDS011;10925;49.102;-0.370;2023-02-28T00:19:49;9.75;;;5.18;;
21527;SDS011;10925;49.102;-0.370;2023-02-28T00:22:21;9.38;;;4.97;;
21527;SDS011;10925;49.102;-0.370;2023-02-28T00:24:46;7.28;;;4.88;;
21527;SDS011;10925;49.102;-0.370;2023-02-28T00:27:12;10.07;;;6.22;;
21527;SDS011;10925;49.102;-0.370;2023-02-28T00:29:40;9.07;;;4.40;;
21527;SDS011;10925;49.102;-0.370;2023-02-28T00:32:09;8.93;;;4.68;;
21527;SDS011;10925;49.102;-0.370;2023-02-28T00:34:36;8.18;;;5.53;;
21527;SDS011;10925;49.102;-0.370;2023-02-28T00:37:07;10.82;;;5.68;;
21527;SDS011;10925;49.102;-0.370;2023-02-28T00:39:34;9.60;;;4.60;;
21527;SDS011;10925;49.102;-0.370;2023-02-28T00:42:00;7.43;;;3.97;;
21527;SDS011;10925;49.102;-0.370;2023-02-28T00:44:27;10.32;;;5.00;;
21527;SDS011;10925;49.102;-0.370;2023-02-28T00:46:54;7.05;;;4.72;;
21527;SDS011;10925;49.102;-0.370;2023-02-28T00:49:20;11.10;;;5.90;;
21527;SDS011;10925;49.102;-0.370;2023-02-28T00:51:46;9.52;;;5.43;;
21527;SDS011;10925;49.102;-0.370;2023-02-28T00:54:13;9.55;;;5.10;;
21527;SDS011;10925;49.102;-0.370;2023-02-28T00:56:40;10.77;;;6.22;;
21527;SDS011;10925;49.102;-0.370;2023-02-28T00:59:07;11.40;;;5.80;;
21527;SDS011;10925;49.102;-0.370;2023-02-28T01:01:34;10.60;;;5.20;;
21527;SDS011;10925;49.102;-0.370;2023-02-28T01:04:01;11.65;;;6.78;;
21527;SDS011;10925;49.102;-0.370;2023-02-28T01:06:26;12.10;;;6.90;;
21527;SDS011;10925;49.102;-0.370;2023-02-28T01:08:52;13.57;;;6.95;;
21527;SDS011;10925;49.102;-0.370;2023-02-28T01:11:19;13.95;;;6.47;;
21527;SDS011;10925;49.102;-0.370;2023-02-28T01:13:46;12.30;;;6.78;;
21527;SDS011;10925;49.102;-0.370;2023-02-28T01:16:13;9.82;;;6.53;;
21527;SDS011;10925;49.102;-0.370;2023-02-28T01:18:40;15.65;;;7.20;;
21527;SDS011;10925;49.102;-0.370;2023-02-28T01:21:06;10.45;;;6.97;;
21527;SDS011;10925;49.102;-0.370;2023-02-28T01:23:32;11.98;;;7.40;;
21527;SDS011;10925;49.102;-0.370;2023-02-28T01:26:03;13.13;;;6.57;;
21527;SDS011;10925;49.102;-0.370;2023-02-28T01:28:28;10.50;;;5.38;;
21527;SDS011;10925;49.102;-0.370;2023-02-28T01:30:54;14.40;;;6.63;;
21527;SDS011;10925;49.102;-0.370;2023-02-28T01:33:20;12.07;;;6.65;;
21527;SDS011;10925;49.102;-0.370;2023-02-28T01:35:47;13.32;;;7.00;;
21527;SDS011;10925;49.102;-0.370;2023-02-28T01:38:14;16.13;;;7.38;;
21527;SDS011;10925;49.102;-0.370;2023-02-28T01:40:48;16.48;;;6.45;;
21527;SDS011;10925;49.102;-0.370;2023-02-28T01:43:19;8.38;;;4.90;;
21527;SDS011;10925;49.102;-0.370;2023-02-28T01:45:46;13.57;;;7.70;;
21527;SDS011;10925;49.102;-0.370;2023-02-28T01:48:13;14.40;;;7.95;;
21527;SDS011;10925;49.102;-0.370;2023-02-28T01:50:41;11.25;;;6.97;;
21527;SDS011;10925;49.102;-0.370;2023-02-28T01:53:10;10.48;;;7.43;;
21527;SDS011;10925;49.102;-0.370;2023-02-28T01:55:39;16.98;;;8.45;;
21527;SDS011;10925;49.102;-0.370;2023-02-28T01:58:05;10.93;;;7.20;;
21527;SDS011;10925;49.102;-0.370;2023-02-28T02:00:32;16.77;;;8.55;;
21527;SDS011;10925;49.102;-0.370;2023-02-28T02:03:05;16.75;;;8.40;;
21527;SDS011;10925;49.102;-0.370;2023-02-28T02:05:31;13.85;;;8.85;;
21527;SDS011;10925;49.102;-0.370;2023-02-28T02:08:03;12.35;;;7.95;;
21527;SDS011;10925;49.102;-0.370;2023-02-28T02:17:52;15.52;;;9.20;;
21527;SDS011;10925;49.102;-0.370;2023-02-28T02:30:43;17.38;;;9.95;;
21527;SDS011;10925;49.102;-0.370;2023-02-28T02:43:44;14.90;;;8.75;;
21527;SDS011;10925;49.102;-0.370;2023-02-28T02:46:14;15.43;;;9.25;;
21527;SDS011;10925;49.102;-0.370;2023-02-28T02:48:42;11.75;;;8.38;;
21527;SDS011;10925;49.102;-0.370;2023-02-28T02:51:16;14.40;;;9.60;;
21527;SDS011;10925;49.102;-0.370;2023-02-28T02:53:45;20.08;;;10.00;;
21527;SDS011;10925;49.102;-0.370;2023-02-28T02:56:14;30.67;;;16.90;;
21527;SDS011;10925;49.102;-0.370;2023-02-28T02:58:41;53.80;;;24.17;;
21527;SDS011;10925;49.102;-0.370;2023-02-28T03:01:17;104.30;;;34.03;;
21527;SDS011;10925;49.102;-0.370;2023-02-28T03:03:57;34.58;;;15.75;;
21527;SDS011;10925;49.102;-0.370;2023-02-28T03:06:24;48.95;;;19.00;;
21527;SDS011;10925;49.102;-0.370;2023-02-28T03:08:50;32.20;;;15.10;;
21527;SDS011;10925;49.102;-0.370;2023-02-28T03:11:15;24.15;;;12.40;;
21527;SDS011;10925;49.102;-0.370;2023-02-28T03:13:51;49.75;;;22.35;;
21527;SDS011;10925;49.102;-0.370;2023-02-28T03:16:28;18.50;;;11.20;;
21527;SDS011;10925;49.102;-0.370;2023-02-28T03:19:06;15.93;;;9.77;;
21527;SDS011;10925;49.102;-0.370;2023-02-28T03:27:07;46.72;;;21.13;;
21527;SDS011;10925;49.102;-0.370;2023-02-28T03:29:37;49.42;;;22.42;;
21527;SDS011;10925;49.102;-0.370;2023-02-28T03:37:35;25.58;;;13.88;;
21527;SDS011;10925;49.102;-0.370;2023-02-28T03:40:06;34.65;;;16.13;;
21527;SDS011;10925;49.102;-0.370;2023-02-28T03:42:34;43.08;;;20.92;;
21527;SDS011;10925;49.102;-0.370;2023-02-28T03:45:08;46.05;;;20.40;;
21527;SDS011;10925;49.102;-0.370;2023-02-28T03:47:39;21.60;;;11.93;;
21527;SDS011;10925;49.102;-0.370;2023-02-28T03:50:22;24.88;;;13.73;;
21527;SDS011;10925;49.102;-0.370;2023-02-28T03:55:19;28.95;;;16.05;;
21527;SDS011;10925;49.102;-0.370;2023-02-28T03:57:53;21.05;;;12.30;;
21527;SDS011;10925;49.102;-0.370;2023-02-28T04:00:25;25.88;;;13.10;;
21527;SDS011;10925;49.102;-0.370;2023-02-28T04:02:54;44.22;;;22.73;;
21527;SDS011;10925;49.102;-0.370;2023-02-28T04:05:22;22.40;;;13.70;;
21527;SDS011;10925;49.102;-0.370;2023-02-28T04:07:47;31.70;;;17.20;;
21527;SDS011;10925;49.102;-0.370;2023-02-28T04:10:13;25.40;;;14.40;;
21527;SDS011;10925;49.102;-0.370;2023-02-28T04:12:41;19.65;;;12.73;;
21527;SDS011;10925;49.102;-0.370;2023-02-28T04:15:08;28.23;;;15.77;;
21527;SDS011;10925;49.102;-0.370;2023-02-28T04:17:36;30.60;;;18.65;;
21527;SDS011;10925;49.102;-0.370;2023-02-28T04:20:03;28.58;;;17.35;;
21527;SDS011;10925;49.102;-0.370;2023-02-28T04:25:37;22.48;;;14.18;;
21527;SDS011;10925;49.102;-0.370;2023-02-28T04:28:09;25.05;;;15.27;;
21527;SDS011;10925;49.102;-0.370;2023-02-28T04:30:35;31.42;;;18.33;;
21527;SDS011;10925;49.102;-0.370;2023-02-28T04:33:01;23.92;;;16.10;;
21527;SDS011;10925;49.102;-0.370;2023-02-28T04:35:26;20.70;;;12.48;;
21527;SDS011;10925;49.102;-0.370;2023-02-28T04:37:54;31.13;;;18.08;;
21527;SDS011;10925;49.102;-0.370;2023-02-28T04:40:21;37.13;;;21.65;;
21527;SDS011;10925;49.102;-0.370;2023-02-28T04:42:46;41.15;;;19.70;;
21527;SDS011;10925;49.102;-0.370;2023-02-28T04:45:12;34.33;;;20.05;;
21527;SDS011;10925;49.102;-0.370;2023-02-28T04:47:38;51.58;;;26.35;;
21527;SDS011;10925;49.102;-0.370;2023-02-28T04:50:03;30.02;;;16.92;;
21527;SDS011;10925;49.102;-0.370;2023-02-28T04:52:29;34.92;;;20.80;;
21527;SDS011;10925;49.102;-0.370;2023-02-28T04:54:54;30.65;;;17.77;;
21527;SDS011;10925;49.102;-0.370;2023-02-28T04:57:21;25.75;;;14.63;;
21527;SDS011;10925;49.102;-0.370;2023-02-28T04:59:48;27.58;;;13.93;;
21527;SDS011;10925;49.102;-0.370;2023-02-28T05:02:14;25.33;;;14.77;;
21527;SDS011;10925;49.102;-0.370;2023-02-28T05:04:39;23.85;;;14.35;;
21527;SDS011;10925;49.102;-0.370;2023-02-28T05:07:06;23.23;;;13.18;;
21527;SDS011;10925;49.102;-0.370;2023-02-28T05:09:47;20.40;;;13.50;;
21527;SDS011;10925;49.102;-0.370;2023-02-28T05:12:13;29.73;;;15.55;;
21527;SDS011;10925;49.102;-0.370;2023-02-28T05:14:38;32.58;;;18.38;;
21527;SDS011;10925;49.102;-0.370;2023-02-28T05:17:05;36.72;;;19.45;;
21527;SDS011;10925;49.102;-0.370;2023-02-28T05:24:31;33.83;;;17.95;;
21527;SDS011;10925;49.102;-0.370;2023-02-28T05:27:02;41.13;;;22.17;;
21527;SDS011;10925;49.102;-0.370;2023-02-28T05:29:30;29.55;;;17.17;;
21527;SDS011;10925;49.102;-0.370;2023-02-28T05:31:57;28.80;;;16.45;;
21527;SDS011;10925;49.102;-0.370;2023-02-28T05:34:22;30.92;;;16.52;;
21527;SDS011;10925;49.102;-0.370;2023-02-28T05:36:49;32.67;;;18.60;;
21527;SDS011;10925;49.102;-0.370;2023-02-28T05:39:17;29.73;;;16.95;;
21527;SDS011;10925;49.102;-0.370;2023-02-28T05:41:44;29.25;;;16.90;;
21527;SDS011;10925;49.102;-0.370;2023-02-28T05:44:11;30.65;;;16.40;;
21527;SDS011;10925;49.102;-0.370;2023-02-28T05:46:37;28.92;;;17.77;;
21527;SDS011;10925;49.102;-0.370;2023-02-28T05:49:03;30.42;;;17.45;;
21527;SDS011;10925;49.102;-0.370;2023-02-28T05:51:29;32.53;;;18.08;;
21527;SDS011;10925;49.102;-0.370;2023-02-28T05:53:54;36.17;;;19.92;;
21527;SDS011;10925;49.102;-0.370;2023-02-28T05:56:20;32.53;;;20.30;;
21527;SDS011;10925;49.102;-0.370;2023-02-28T05:58:45;32.38;;;18.95;;
21527;SDS011;10925;49.102;-0.370;2023-02-28T06:03:57;36.00;;;20.27;;
21527;SDS011;10925;49.102;-0.370;2023-02-28T06:06:24;35.58;;;19.10;;
21527;SDS011;10925;49.102;-0.370;2023-02-28T06:08:51;33.28;;;18.42;;
21527;SDS011;10925;49.102;-0.370;2023-02-28T06:11:17;29.92;;;17.65;;
21527;SDS011;10925;49.102;-0.370;2023-02-28T06:13:46;36.65;;;18.15;;
21527;SDS011;10925;49.102;-0.370;2023-02-28T06:16:13;34.42;;;20.23;;
21527;SDS011;10925;49.102;-0.370;2023-02-28T06:18:40;40.08;;;19.88;;
21527;SDS011;10925;49.102;-0.370;2023-02-28T06:21:05;41.85;;;19.90;;
21527;SDS011;10925;49.102;-0.370;2023-02-28T06:23:32;33.83;;;17.75;;
21527;SDS011;10925;49.102;-0.370;2023-02-28T06:25:59;31.95;;;17.80;;
21527;SDS011;10925;49.102;-0.370;2023-02-28T06:28:25;37.70;;;20.90;;
21527;SDS011;10925;49.102;-0.370;2023-02-28T06:30:51;32.53;;;19.17;;
21527;SDS011;10925;49.102;-0.370;2023-02-28T06:33:18;42.92;;;21.08;;
21527;SDS011;10925;49.102;-0.370;2023-02-28T06:35:46;41.17;;;21.40;;
21527;SDS011;10925;49.102;-0.370;2023-02-28T06:38:13;35.17;;;20.05;;
21527;SDS011;10925;49.102;-0.370;2023-02-28T06:40:40;52.53;;;24.83;;
21527;SDS011;10925;49.102;-0.370;2023-02-28T06:43:07;43.10;;;22.48;;
21527;SDS011;10925;49.102;-0.370;2023-02-28T06:45:34;50.38;;;24.60;;
21527;SDS011;10925;49.102;-0.370;2023-02-28T06:48:00;44.50;;;22.80;;
21527;SDS011;10925;49.102;-0.370;2023-02-28T06:50:28;40.72;;;21.13;;
21527;SDS011;10925;49.102;-0.370;2023-02-28T06:52:56;42.10;;;22.45;;
21527;SDS011;10925;49.102;-0.370;2023-02-28T06:55:21;40.58;;;22.77;;
21527;SDS011;10925;49.102;-0.370;2023-02-28T06:57:47;50.05;;;26.83;;
21527;SDS011;10925;49.102;-0.370;2023-02-28T07:00:12;45.15;;;23.17;;
21527;SDS011;10925;49.102;-0.370;2023-02-28T07:02:38;40.65;;;22.65;;
21527;SDS011;10925;49.102;-0.370;2023-02-28T07:05:05;49.72;;;23.25;;
21527;SDS011;10925;49.102;-0.370;2023-02-28T07:07:32;51.17;;;25.13;;
21527;SDS011;10925;49.102;-0.370;2023-02-28T07:09:59;44.05;;;25.30;;
21527;SDS011;10925;49.102;-0.370;2023-02-28T07:12:25;50.30;;;26.40;;
21527;SDS011;10925;49.102;-0.370;2023-02-28T07:14:51;51.60;;;26.80;;
21527;SDS011;10925;49.102;-0.370;2023-02-28T07:17:18;50.75;;;26.88;;
21527;SDS011;10925;49.102;-0.370;2023-02-28T07:19:43;46.47;;;23.13;;
21527;SDS011;10925;49.102;-0.370;2023-02-28T07:22:10;37.17;;;21.88;;
21527;SDS011;10925;49.102;-0.370;2023-02-28T07:24:40;43.63;;;23.40;;
21527;SDS011;10925;49.102;-0.370;2023-02-28T07:27:07;39.70;;;21.05;;
21527;SDS011;10925;49.102;-0.370;2023-02-28T07:29:34;45.17;;;21.95;;
21527;SDS011;10925;49.102;-0.370;2023-02-28T07:32:01;38.10;;;20.98;;
21527;SDS011;10925;49.102;-0.370;2023-02-28T07:34:26;44.58;;;21.67;;
21527;SDS011;10925;49.102;-0.370;2023-02-28T07:36:53;42.92;;;22.33;;
21527;SDS011;10925;49.102;-0.370;2023-02-28T07:39:21;40.20;;;22.08;;
21527;SDS011;10925;49.102;-0.370;2023-02-28T07:41:46;41.63;;;18.85;;
21527;SDS011;10925;49.102;-0.370;2023-02-28T07:44:13;34.50;;;18.08;;
21527;SDS011;10925;49.102;-0.370;2023-02-28T07:46:41;30.98;;;17.27;;
21527;SDS011;10925;49.102;-0.370;2023-02-28T07:49:06;33.85;;;17.50;;
21527;SDS011;10925;49.102;-0.370;2023-02-28T07:51:32;35.55;;;18.42;;
21527;SDS011;10925;49.102;-0.370;2023-02-28T07:53:59;32.67;;;17.65;;
21527;SDS011;10925;49.102;-0.370;2023-02-28T07:56:25;29.25;;;17.10;;
21527;SDS011;10925;49.102;-0.370;2023-02-28T07:58:52;24.95;;;13.05;;
21527;SDS011;10925;49.102;-0.370;2023-02-28T08:01:19;31.48;;;13.75;;
21527;SDS011;10925;49.102;-0.370;2023-02-28T08:03:46;33.08;;;18.20;;
21527;SDS011;10925;49.102;-0.370;2023-02-28T08:06:16;41.63;;;20.38;;
21527;SDS011;10925;49.102;-0.370;2023-02-28T08:08:41;34.28;;;18.67;;
21527;SDS011;10925;49.102;-0.370;2023-02-28T08:11:08;31.67;;;17.08;;
21527;SDS011;10925;49.102;-0.370;2023-02-28T08:13:35;40.05;;;20.20;;
21527;SDS011;10925;49.102;-0.370;2023-02-28T08:16:02;31.58;;;17.13;;
21527;SDS011;10925;49.102;-0.370;2023-02-28T08:18:29;33.42;;;19.83;;
21527;SDS011;10925;49.102;-0.370;2023-02-28T08:20:56;28.10;;;16.88;;
21527;SDS011;10925;49.102;-0.370;2023-02-28T08:23:24;27.60;;;16.13;;
21527;SDS011;10925;49.102;-0.370;2023-02-28T08:25:53;25.67;;;14.88;;
21527;SDS011;10925;49.102;-0.370;2023-02-28T08:28:19;29.38;;;16.15;;
21527;SDS011;10925;49.102;-0.370;2023-02-28T08:30:44;28.13;;;14.32;;
21527;SDS011;10925;49.102;-0.370;2023-02-28T08:33:10;24.35;;;13.45;;
21527;SDS011;10925;49.102;-0.370;2023-02-28T08:35:36;29.70;;;16.23;;
21527;SDS011;10925;49.102;-0.370;2023-02-28T08:38:02;29.25;;;16.63;;
21527;SDS011;10925;49.102;-0.370;2023-02-28T08:40:29;26.95;;;15.02;;
21527;SDS011;10925;49.102;-0.370;2023-02-28T08:42:56;29.73;;;14.98;;
21527;SDS011;10925;49.102;-0.370;2023-02-28T08:45:21;29.27;;;16.65;;
21527;SDS011;10925;49.102;-0.370;2023-02-28T08:47:47;25.02;;;16.13;;
21527;SDS011;10925;49.102;-0.370;2023-02-28T08:50:12;26.88;;;14.65;;
21527;SDS011;10925;49.102;-0.370;2023-02-28T08:52:42;25.95;;;15.95;;
21527;SDS011;10925;49.102;-0.370;2023-02-28T08:58:03;16.43;;;7.87;;
21527;SDS011;10925;49.102;-0.370;2023-02-28T09:00:29;14.80;;;8.57;;
21527;SDS011;10925;49.102;-0.370;2023-02-28T09:02:54;15.95;;;9.50;;
21527;SDS011;10925;49.102;-0.370;2023-02-28T09:05:20;20.50;;;11.32;;
21527;SDS011;10925;49.102;-0.370;2023-02-28T09:07:45;21.23;;;12.80;;
21527;SDS011;10925;49.102;-0.370;2023-02-28T09:10:11;20.80;;;10.75;;
21527;SDS011;10925;49.102;-0.370;2023-02-28T09:12:36;17.65;;;8.55;;
21527;SDS011;10925;49.102;-0.370;2023-02-28T09:15:04;17.45;;;10.07;;
21527;SDS011;10925;49.102;-0.370;2023-02-28T09:17:30;10.05;;;6.10;;
21527;SDS011;10925;49.102;-0.370;2023-02-28T09:19:57;19.30;;;10.68;;
21527;SDS011;10925;49.102;-0.370;2023-02-28T09:22:24;19.35;;;10.13;;
21527;SDS011;10925;49.102;-0.370;2023-02-28T09:24:50;21.25;;;11.57;;
21527;SDS011;10925;49.102;-0.370;2023-02-28T09:27:17;11.57;;;6.45;;
21527;SDS011;10925;49.102;-0.370;2023-02-28T09:29:44;15.55;;;10.05;;
21527;SDS011;10925;49.102;-0.370;2023-02-28T09:32:11;14.43;;;7.32;;
21527;SDS011;10925;49.102;-0.370;2023-02-28T09:34:36;14.82;;;8.30;;
21527;SDS011;10925;49.102;-0.370;2023-02-28T09:37:04;10.50;;;7.15;;
21527;SDS011;10925;49.102;-0.370;2023-02-28T09:39:31;25.33;;;6.55;;
21527;SDS011;10925;49.102;-0.370;2023-02-28T09:41:57;9.68;;;5.03;;
21527;SDS011;10925;49.102;-0.370;2023-02-28T09:46:58;7.40;;;4.20;;
21527;SDS011;10925;49.102;-0.370;2023-02-28T09:49:40;4.10;;;3.03;;
21527;SDS011;10925;49.102;-0.370;2023-02-28T09:52:12;6.75;;;3.47;;
21527;SDS011;10925;49.102;-0.370;2023-02-28T09:54:38;8.07;;;4.90;;
21527;SDS011;10925;49.102;-0.370;2023-02-28T09:57:08;8.80;;;5.53;;
21527;SDS011;10925;49.102;-0.370;2023-02-28T09:59:39;10.35;;;6.10;;
21527;SDS011;10925;49.102;-0.370;2023-02-28T10:05:02;9.50;;;4.13;;
21527;SDS011;10925;49.102;-0.370;2023-02-28T10:10:22;6.85;;;4.25;;
21527;SDS011;10925;49.102;-0.370;2023-02-28T10:12:51;8.20;;;4.22;;
21527;SDS011;10925;49.102;-0.370;2023-02-28T10:15:17;8.80;;;3.83;;
21527;SDS011;10925;49.102;-0.370;2023-02-28T10:17:46;8.60;;;5.47;;
21527;SDS011;10925;49.102;-0.370;2023-02-28T10:20:35;7.18;;;4.03;;
21527;SDS011;10925;49.102;-0.370;2023-02-28T10:23:25;9.40;;;5.03;;
21527;SDS011;10925;49.102;-0.370;2023-02-28T10:25:54;5.35;;;4.22;;
21527;SDS011;10925;49.102;-0.370;2023-02-28T10:28:21;12.27;;;6.05;;
21527;SDS011;10925;49.102;-0.370;2023-02-28T10:30:49;11.80;;;5.72;;
21527;SDS011;10925;49.102;-0.370;2023-02-28T10:33:38;4.85;;;3.22;;
21527;SDS011;10925;49.102;-0.370;2023-02-28T10:36:04;8.18;;;4.80;;
21527;SDS011;10925;49.102;-0.370;2023-02-28T10:38:36;10.05;;;4.13;;
21527;SDS011;10925;49.102;-0.370;2023-02-28T10:43:30;9.68;;;4.63;;
21527;SDS011;10925;49.102;-0.370;2023-02-28T10:46:10;8.27;;;4.53;;
21527;SDS011;10925;49.102;-0.370;2023-02-28T10:48:45;9.20;;;3.55;;
21527;SDS011;10925;49.102;-0.370;2023-02-28T10:51:13;10.50;;;4.72;;
21527;SDS011;10925;49.102;-0.370;2023-02-28T10:56:26;9.45;;;5.00;;
21527;SDS011;10925;49.102;-0.370;2023-02-28T11:03:57;6.45;;;3.92;;
21527;SDS011;10925;49.102;-0.370;2023-02-28T11:06:31;7.63;;;4.38;;
21527;SDS011;10925;49.102;-0.370;2023-02-28T11:08:59;14.25;;;6.43;;
21527;SDS011;10925;49.102;-0.370;2023-02-28T11:11:26;7.20;;;4.05;;
21527;SDS011;10925;49.102;-0.370;2023-02-28T11:14:02;5.57;;;3.70;;
21527;SDS011;10925;49.102;-0.370;2023-02-28T11:16:36;10.45;;;4.32;;
21527;SDS011;10925;49.102;-0.370;2023-02-28T11:19:04;5.13;;;3.15;;
21527;SDS011;10925;49.102;-0.370;2023-02-28T11:21:33;6.03;;;3.30;;
21527;SDS011;10925;49.102;-0.370;2023-02-28T11:24:22;7.95;;;3.28;;
21527;SDS011;10925;49.102;-0.370;2023-02-28T11:26:49;6.97;;;3.22;;
21527;SDS011;10925;49.102;-0.370;2023-02-28T11:29:27;8.60;;;4.22;;
21527;SDS011;10925;49.102;-0.370;2023-02-28T11:34:29;7.10;;;3.58;;
21527;SDS011;10925;49.102;-0.370;2023-02-28T11:36:55;4.47;;;3.38;;
21527;SDS011;10925;49.102;-0.370;2023-02-28T11:39:23;7.13;;;3.67;;
21527;SDS011;10925;49.102;-0.370;2023-02-28T11:42:10;7.07;;;3.50;;
21527;SDS011;10925;49.102;-0.370;2023-02-28T11:47:19;4.32;;;2.83;;
21527;SDS011;10925;49.102;-0.370;2023-02-28T11:50:03;4.25;;;3.50;;
21527;SDS011;10925;49.102;-0.370;2023-02-28T11:52:38;7.07;;;3.65;;
21527;SDS011;10925;49.102;-0.370;2023-02-28T12:00:27;5.53;;;3.60;;
21527;SDS011;10925;49.102;-0.370;2023-02-28T12:07:55;6.63;;;3.90;;
21527;SDS011;10925;49.102;-0.370;2023-02-28T12:10:30;9.82;;;4.65;;
21527;SDS011;10925;49.102;-0.370;2023-02-28T12:13:09;8.63;;;4.65;;
21527;SDS011;10925;49.102;-0.370;2023-02-28T12:21:01;5.85;;;3.60;;
21527;SDS011;10925;49.102;-0.370;2023-02-28T12:28:27;11.60;;;6.07;;
21527;SDS011;10925;49.102;-0.370;2023-02-28T12:33:22;8.98;;;4.10;;
21527;SDS011;10925;49.102;-0.370;2023-02-28T12:35:53;8.50;;;3.80;;
21527;SDS011;10925;49.102;-0.370;2023-02-28T12:38:23;11.40;;;5.07;;
21527;SDS011;10925;49.102;-0.370;2023-02-28T12:41:00;5.55;;;3.08;;
21527;SDS011;10925;49.102;-0.370;2023-02-28T12:43:38;10.80;;;4.55;;
21527;SDS011;10925;49.102;-0.370;2023-02-28T12:46:11;10.80;;;5.93;;
21527;SDS011;10925;49.102;-0.370;2023-02-28T12:48:40;4.70;;;3.25;;
21527;SDS011;10925;49.102;-0.370;2023-02-28T12:51:07;7.78;;;4.60;;
21527;SDS011;10925;49.102;-0.370;2023-02-28T12:53:38;9.60;;;5.00;;
21527;SDS011;10925;49.102;-0.370;2023-02-28T12:58:47;6.15;;;4.43;;
21527;SDS011;10925;49.102;-0.370;2023-02-28T13:03:47;6.80;;;4.32;;
21527;SDS011;10925;49.102;-0.370;2023-02-28T13:06:22;9.43;;;4.90;;
21527;SDS011;10925;49.102;-0.370;2023-02-28T13:09:10;6.63;;;2.90;;
21527;SDS011;10925;49.102;-0.370;2023-02-28T13:14:05;11.85;;;4.28;;
21527;SDS011;10925;49.102;-0.370;2023-02-28T13:19:46;10.00;;;5.23;;
21527;SDS011;10925;49.102;-0.370;2023-02-28T13:22:17;10.77;;;5.53;;
21527;SDS011;10925;49.102;-0.370;2023-02-28T13:24:48;14.23;;;7.18;;
21527;SDS011;10925;49.102;-0.370;2023-02-28T13:29:41;16.30;;;7.68;;
21527;SDS011;10925;49.102;-0.370;2023-02-28T13:37:41;15.90;;;8.57;;
21527;SDS011;10925;49.102;-0.370;2023-02-28T13:42:48;15.65;;;7.47;;
21527;SDS011;10925;49.102;-0.370;2023-02-28T13:45:23;15.63;;;6.75;;
21527;SDS011;10925;49.102;-0.370;2023-02-28T13:47:55;19.75;;;9.80;;
21527;SDS011;10925;49.102;-0.370;2023-02-28T13:55:37;15.05;;;9.65;;
21527;SDS011;10925;49.102;-0.370;2023-02-28T14:03:36;18.60;;;10.65;;
21527;SDS011;10925;49.102;-0.370;2023-02-28T14:06:15;16.38;;;9.60;;
21527;SDS011;10925;49.102;-0.370;2023-02-28T14:08:52;17.17;;;9.63;;
21527;SDS011;10925;49.102;-0.370;2023-02-28T14:11:53;21.10;;;11.55;;
21527;SDS011;10925;49.102;-0.370;2023-02-28T14:16:57;20.20;;;12.43;;
21527;SDS011;10925;49.102;-0.370;2023-02-28T14:19:26;22.00;;;13.10;;
21527;SDS011;10925;49.102;-0.370;2023-02-28T14:29:44;23.40;;;11.65;;
21527;SDS011;10925;49.102;-0.370;2023-02-28T14:37:28;17.35;;;10.25;;
21527;SDS011;10925;49.102;-0.370;2023-02-28T14:39:57;14.52;;;7.63;;
21527;SDS011;10925;49.102;-0.370;2023-02-28T14:42:29;18.42;;;10.40;;
21527;SDS011;10925;49.102;-0.370;2023-02-28T14:44:56;19.48;;;13.30;;
21527;SDS011;10925;49.102;-0.370;2023-02-28T14:47:22;20.58;;;13.40;;
21527;SDS011;10925;49.102;-0.370;2023-02-28T14:49:48;21.30;;;13.90;;
21527;SDS011;10925;49.102;-0.370;2023-02-28T14:52:27;21.75;;;13.38;;
21527;SDS011;10925;49.102;-0.370;2023-02-28T14:54:54;25.95;;;15.23;;
21527;SDS011;10925;49.102;-0.370;2023-02-28T14:57:29;17.48;;;12.27;;
21527;SDS011;10925;49.102;-0.370;2023-02-28T15:00:00;21.15;;;13.68;;
21527;SDS011;10925;49.102;-0.370;2023-02-28T15:02:33;23.25;;;13.27;;
21527;SDS011;10925;49.102;-0.370;2023-02-28T15:05:00;26.33;;;15.77;;
21527;SDS011;10925;49.102;-0.370;2023-02-28T15:07:27;22.77;;;15.27;;
21527;SDS011;10925;49.102;-0.370;2023-02-28T15:12:41;27.05;;;17.02;;
21527;SDS011;10925;49.102;-0.370;2023-02-28T15:15:14;24.27;;;17.38;;
21527;SDS011;10925;49.102;-0.370;2023-02-28T15:17:39;25.20;;;16.05;;
21527;SDS011;10925;49.102;-0.370;2023-02-28T15:20:10;23.67;;;14.45;;
21527;SDS011;10925;49.102;-0.370;2023-02-28T15:22:36;24.73;;;15.75;;
21527;SDS011;10925;49.102;-0.370;2023-02-28T15:25:03;19.77;;;13.80;;
21527;SDS011;10925;49.102;-0.370;2023-02-28T15:27:32;19.38;;;14.82;;
21527;SDS011;10925;49.102;-0.370;2023-02-28T15:30:04;21.52;;;13.63;;
21527;SDS011;10925;49.102;-0.370;2023-02-28T15:32:34;20.00;;;13.95;;
21527;SDS011;10925;49.102;-0.370;2023-02-28T15:35:19;23.60;;;14.52;;
21527;SDS011;10925;49.102;-0.370;2023-02-28T15:37:48;70.63;;;36.03;;
21527;SDS011;10925;49.102;-0.370;2023-02-28T15:45:28;30.15;;;19.35;;
21527;SDS011;10925;49.102;-0.370;2023-02-28T15:47:56;30.73;;;17.92;;
21527;SDS011;10925;49.102;-0.370;2023-02-28T15:50:22;31.55;;;17.90;;
21527;SDS011;10925;49.102;-0.370;2023-02-28T15:52:50;50.78;;;25.83;;
21527;SDS011;10925;49.102;-0.370;2023-02-28T15:57:44;49.92;;;25.65;;
21527;SDS011;10925;49.102;-0.370;2023-02-28T16:14:44;27.48;;;15.27;;
21527;SDS011;10925;49.102;-0.370;2023-02-28T16:17:21;26.20;;;14.68;;
21527;SDS011;10925;49.102;-0.370;2023-02-28T16:19:49;23.20;;;15.07;;
21527;SDS011;10925;49.102;-0.370;2023-02-28T16:22:16;26.80;;;16.42;;
21527;SDS011;10925;49.102;-0.370;2023-02-28T16:24:43;28.02;;;19.25;;
21527;SDS011;10925;49.102;-0.370;2023-02-28T16:27:14;27.17;;;18.17;;
21527;SDS011;10925;49.102;-0.370;2023-02-28T16:29:43;26.92;;;17.88;;
21527;SDS011;10925;49.102;-0.370;2023-02-28T16:32:12;26.75;;;18.52;;
21527;SDS011;10925;49.102;-0.370;2023-02-28T16:34:39;29.20;;;19.40;;
21527;SDS011;10925;49.102;-0.370;2023-02-28T16:37:16;24.88;;;17.25;;
21527;SDS011;10925;49.102;-0.370;2023-02-28T16:39:44;18.67;;;12.85;;
21527;SDS011;10925;49.102;-0.370;2023-02-28T16:42:15;17.38;;;13.07;;
21527;SDS011;10925;49.102;-0.370;2023-02-28T16:44:41;23.23;;;14.65;;
21527;SDS011;10925;49.102;-0.370;2023-02-28T16:47:08;24.98;;;14.38;;
21527;SDS011;10925;49.102;-0.370;2023-02-28T16:49:35;22.85;;;13.45;;
21527;SDS011;10925;49.102;-0.370;2023-02-28T16:52:00;25.75;;;15.20;;
21527;SDS011;10925;49.102;-0.370;2023-02-28T16:54:25;27.45;;;16.00;;
21527;SDS011;10925;49.102;-0.370;2023-02-28T16:56:51;20.00;;;11.68;;
21527;SDS011;10925;49.102;-0.370;2023-02-28T16:59:19;29.95;;;17.75;;
21527;SDS011;10925;49.102;-0.370;2023-02-28T17:01:48;25.42;;;13.73;;
21527;SDS011;10925;49.102;-0.370;2023-02-28T17:04:16;19.92;;;14.45;;
21527;SDS011;10925;49.102;-0.370;2023-02-28T17:06:41;41.70;;;22.73;;
21527;SDS011;10925;49.102;-0.370;2023-02-28T17:09:17;27.65;;;14.65;;
21527;SDS011;10925;49.102;-0.370;2023-02-28T17:11:45;20.85;;;13.05;;
21527;SDS011;10925;49.102;-0.370;2023-02-28T17:14:12;19.88;;;12.38;;
21527;SDS011;10925;49.102;-0.370;2023-02-28T17:16:40;18.52;;;12.27;;
21527;SDS011;10925;49.102;-0.370;2023-02-28T17:19:14;86.70;;;38.65;;